SKB791 KATL-KOKC
Flight info
| Callsign | SKB791 |
|---|---|
| Flight time | 2h 17m |
| Altitude | 32000 |
| Route | NASSA2 YAALL J14 DWINE RIFFL3 |
| Aircraft | A320/M-SDE3FGHIRWY/LB1 |
Departure
| Time | 2026-05-07 17:03 |
|---|---|
| Airport | Hartsfield Jackson Atlanta International Airport (KATL) |
Arrival
| Time | 2026-05-07 19:20 |
|---|---|
| Airport | OKC Will Rogers World Airport (KOKC) |
| Time | Latitude | Longitude | Altitude | Speed | Heading |
|---|---|---|---|---|---|
| 2026-05-07 16:15 | 33.63812 | -84.42886 | 1036 ft | 0 kts | 288° |
| 2026-05-07 16:47 | 33.63810 | -84.42878 | 1035 ft | 1 kts | 288° |
| 2026-05-07 16:47 | 33.63806 | -84.42864 | 1036 ft | 2 kts | 240° |
| 2026-05-07 16:48 | 33.63814 | -84.42851 | 1035 ft | 2 kts | 226° |
| 2026-05-07 16:48 | 33.63824 | -84.42839 | 1035 ft | 2 kts | 225° |
| 2026-05-07 16:48 | 33.63833 | -84.42827 | 1035 ft | 2 kts | 225° |
| 2026-05-07 16:48 | 33.63843 | -84.42815 | 1035 ft | 2 kts | 216° |
| 2026-05-07 16:49 | 33.63849 | -84.42810 | 1035 ft | 1 kts | 191° |
| 2026-05-07 16:49 | 33.63851 | -84.42810 | 1035 ft | 0 kts | 189° |
| 2026-05-07 16:53 | 33.63842 | -84.42810 | 1035 ft | 4 kts | 179° |
| 2026-05-07 16:53 | 33.63792 | -84.42808 | 1035 ft | 11 kts | 178° |
| 2026-05-07 16:53 | 33.63707 | -84.42808 | 1035 ft | 10 kts | 174° |
| 2026-05-07 16:53 | 33.63662 | -84.42753 | 1035 ft | 8 kts | 98° |
| 2026-05-07 16:54 | 33.63660 | -84.42734 | 1036 ft | 0 kts | 96° |
| 2026-05-07 16:54 | 33.63655 | -84.42676 | 1036 ft | 15 kts | 93° |
| 2026-05-07 16:55 | 33.63656 | -84.42521 | 1036 ft | 20 kts | 89° |
| 2026-05-07 16:55 | 33.63655 | -84.42354 | 1036 ft | 18 kts | 89° |
| 2026-05-07 16:55 | 33.63656 | -84.42204 | 1036 ft | 18 kts | 90° |
| 2026-05-07 16:55 | 33.63656 | -84.42061 | 1036 ft | 17 kts | 90° |
| 2026-05-07 16:56 | 33.63656 | -84.41924 | 1035 ft | 16 kts | 90° |
| 2026-05-07 16:56 | 33.63656 | -84.41799 | 1035 ft | 15 kts | 90° |
| 2026-05-07 16:56 | 33.63656 | -84.41490 | 1035 ft | 22 kts | 90° |
| 2026-05-07 16:57 | 33.63656 | -84.41298 | 1035 ft | 23 kts | 90° |
| 2026-05-07 16:57 | 33.63656 | -84.41100 | 1035 ft | 24 kts | 90° |
| 2026-05-07 16:57 | 33.63656 | -84.40897 | 1035 ft | 25 kts | 90° |
| 2026-05-07 16:57 | 33.63617 | -84.40750 | 1036 ft | 16 kts | 166° |
| 2026-05-07 16:58 | 33.63566 | -84.40748 | 1036 ft | 0 kts | 180° |
| 2026-05-07 17:01 | 33.63548 | -84.40748 | 1036 ft | 10 kts | 180° |
| 2026-05-07 17:01 | 33.63473 | -84.40779 | 1036 ft | 12 kts | 242° |
| 2026-05-07 17:02 | 33.63470 | -84.40816 | 1036 ft | 0 kts | 271° |
| 2026-05-07 17:02 | 33.63472 | -84.40995 | 1036 ft | 57 kts | 270° |
| 2026-05-07 17:02 | 33.63471 | -84.41739 | 1035 ft | 118 kts | 270° |
| 2026-05-07 17:02 | 33.63471 | -84.42920 | 1036 ft | 163 kts | 270° |
| 2026-05-07 17:03 | 33.63465 | -84.44357 | 1468 ft | 173 kts | 269° |
| 2026-05-07 17:03 | 33.63440 | -84.45820 | 2095 ft | 177 kts | 269° |
| 2026-05-07 17:03 | 33.63421 | -84.47315 | 2769 ft | 180 kts | 270° |
| 2026-05-07 17:03 | 33.63422 | -84.48827 | 3333 ft | 186 kts | 271° |
| 2026-05-07 17:04 | 33.63430 | -84.50473 | 3588 ft | 208 kts | 271° |
| 2026-05-07 17:04 | 33.63436 | -84.52289 | 3881 ft | 233 kts | 271° |
| 2026-05-07 17:04 | 33.63440 | -84.54330 | 4362 ft | 252 kts | 270° |
| 2026-05-07 17:04 | 33.63445 | -84.56457 | 5189 ft | 258 kts | 270° |
| 2026-05-07 17:05 | 33.63449 | -84.58616 | 6103 ft | 258 kts | 270° |
| 2026-05-07 17:05 | 33.63451 | -84.60772 | 7030 ft | 258 kts | 270° |
| 2026-05-07 17:05 | 33.63452 | -84.62926 | 7938 ft | 258 kts | 270° |
| 2026-05-07 17:05 | 33.63455 | -84.65084 | 8780 ft | 259 kts | 270° |
| 2026-05-07 17:06 | 33.63460 | -84.67254 | 9608 ft | 259 kts | 270° |
| 2026-05-07 17:06 | 33.63469 | -84.69419 | 10429 ft | 261 kts | 269° |
| 2026-05-07 17:06 | 33.63480 | -84.71677 | 10709 ft | 282 kts | 268° |
| 2026-05-07 17:06 | 33.63635 | -84.74091 | 11153 ft | 296 kts | 276° |
| 2026-05-07 17:07 | 33.63962 | -84.76544 | 11865 ft | 299 kts | 275° |
| 2026-05-07 17:07 | 33.64282 | -84.79019 | 12648 ft | 301 kts | 275° |
| 2026-05-07 17:07 | 33.64601 | -84.81508 | 13384 ft | 303 kts | 275° |
| 2026-05-07 17:07 | 33.64923 | -84.84025 | 14037 ft | 307 kts | 275° |
| 2026-05-07 17:08 | 33.65250 | -84.86565 | 14681 ft | 309 kts | 276° |
| 2026-05-07 17:08 | 33.65579 | -84.89133 | 15311 ft | 312 kts | 276° |
| 2026-05-07 17:08 | 33.65914 | -84.91721 | 15921 ft | 315 kts | 276° |
| 2026-05-07 17:08 | 33.66254 | -84.94332 | 16539 ft | 318 kts | 276° |
| 2026-05-07 17:09 | 33.66590 | -84.96933 | 17149 ft | 320 kts | 276° |
| 2026-05-07 17:09 | 33.66931 | -84.99586 | 17739 ft | 323 kts | 276° |
| 2026-05-07 17:09 | 33.67274 | -85.02259 | 18342 ft | 325 kts | 276° |
| 2026-05-07 17:09 | 33.67617 | -85.04946 | 18930 ft | 326 kts | 276° |
| 2026-05-07 17:10 | 33.67960 | -85.07647 | 19513 ft | 328 kts | 276° |
| 2026-05-07 17:10 | 33.68306 | -85.10361 | 20051 ft | 330 kts | 276° |
| 2026-05-07 17:10 | 33.68654 | -85.13090 | 20589 ft | 331 kts | 276° |
| 2026-05-07 17:10 | 33.69001 | -85.15832 | 21093 ft | 333 kts | 276° |
| 2026-05-07 17:11 | 33.69349 | -85.18589 | 21589 ft | 335 kts | 275° |
| 2026-05-07 17:11 | 33.69698 | -85.21370 | 22084 ft | 337 kts | 275° |
| 2026-05-07 17:11 | 33.69846 | -85.24171 | 22551 ft | 336 kts | 268° |
| 2026-05-07 17:11 | 33.69817 | -85.26992 | 23003 ft | 338 kts | 267° |
| 2026-05-07 17:12 | 33.69786 | -85.29825 | 23434 ft | 340 kts | 267° |
| 2026-05-07 17:12 | 33.69755 | -85.32645 | 23845 ft | 342 kts | 267° |
| 2026-05-07 17:12 | 33.69723 | -85.35511 | 24276 ft | 343 kts | 267° |
| 2026-05-07 17:12 | 33.69690 | -85.38385 | 24701 ft | 345 kts | 267° |
| 2026-05-07 17:13 | 33.69657 | -85.41275 | 25123 ft | 346 kts | 267° |
| 2026-05-07 17:13 | 33.69622 | -85.44172 | 25532 ft | 347 kts | 267° |
| 2026-05-07 17:13 | 33.69584 | -85.47077 | 25938 ft | 348 kts | 267° |
| 2026-05-07 17:13 | 33.69544 | -85.49990 | 26339 ft | 349 kts | 267° |
| 2026-05-07 17:14 | 33.69506 | -85.52912 | 26746 ft | 350 kts | 267° |
| 2026-05-07 17:14 | 33.69470 | -85.55838 | 27117 ft | 351 kts | 267° |
| 2026-05-07 17:14 | 33.69436 | -85.58770 | 27498 ft | 352 kts | 267° |
| 2026-05-07 17:14 | 33.69399 | -85.61671 | 27869 ft | 352 kts | 267° |
| 2026-05-07 17:15 | 33.69361 | -85.64618 | 28225 ft | 353 kts | 267° |
| 2026-05-07 17:15 | 33.69321 | -85.67571 | 28578 ft | 354 kts | 266° |
| 2026-05-07 17:15 | 33.69279 | -85.70535 | 28930 ft | 355 kts | 266° |
| 2026-05-07 17:15 | 33.69235 | -85.73498 | 29244 ft | 354 kts | 266° |
| 2026-05-07 17:16 | 33.69187 | -85.76463 | 29569 ft | 356 kts | 266° |
| 2026-05-07 17:16 | 33.69142 | -85.79440 | 29864 ft | 356 kts | 266° |
| 2026-05-07 17:16 | 33.69098 | -85.82422 | 30163 ft | 358 kts | 266° |
| 2026-05-07 17:16 | 33.69053 | -85.85424 | 30449 ft | 359 kts | 266° |
| 2026-05-07 17:17 | 33.69007 | -85.88396 | 30734 ft | 360 kts | 266° |
| 2026-05-07 17:17 | 33.68958 | -85.91412 | 30993 ft | 362 kts | 266° |
| 2026-05-07 17:17 | 33.68909 | -85.94432 | 31332 ft | 361 kts | 266° |
| 2026-05-07 17:17 | 33.68860 | -85.97437 | 31715 ft | 359 kts | 266° |
| 2026-05-07 17:18 | 33.68811 | -86.00443 | 31979 ft | 359 kts | 266° |
| 2026-05-07 17:18 | 33.68767 | -86.03410 | 32031 ft | 348 kts | 266° |
| 2026-05-07 17:18 | 33.69145 | -86.09073 | 32044 ft | 338 kts | 271° |
| 2026-05-07 17:19 | 33.69584 | -86.14669 | 32054 ft | 336 kts | 271° |
| 2026-05-07 17:19 | 33.70015 | -86.20256 | 32054 ft | 336 kts | 271° |
| 2026-05-07 17:20 | 33.70448 | -86.25843 | 32054 ft | 336 kts | 271° |
| 2026-05-07 17:20 | 33.70883 | -86.31444 | 32058 ft | 337 kts | 271° |
| 2026-05-07 17:21 | 33.71319 | -86.37051 | 32056 ft | 336 kts | 271° |
| 2026-05-07 17:21 | 33.71747 | -86.42607 | 32055 ft | 336 kts | 271° |
| 2026-05-07 17:22 | 33.72173 | -86.48190 | 32055 ft | 335 kts | 271° |
| 2026-05-07 17:22 | 33.72590 | -86.53772 | 32054 ft | 335 kts | 271° |
| 2026-05-07 17:23 | 33.73007 | -86.59363 | 32057 ft | 336 kts | 270° |
| 2026-05-07 17:23 | 33.73428 | -86.64944 | 32059 ft | 335 kts | 271° |
| 2026-05-07 17:24 | 33.73846 | -86.70527 | 32059 ft | 335 kts | 270° |
| 2026-05-07 17:24 | 33.74251 | -86.76081 | 32060 ft | 336 kts | 270° |
| 2026-05-07 17:25 | 33.74658 | -86.81681 | 32064 ft | 336 kts | 270° |
| 2026-05-07 17:25 | 33.75068 | -86.87285 | 32068 ft | 336 kts | 270° |
| 2026-05-07 17:26 | 33.75474 | -86.92841 | 32069 ft | 336 kts | 270° |
| 2026-05-07 17:26 | 33.75883 | -86.98467 | 32073 ft | 335 kts | 270° |
| 2026-05-07 17:27 | 33.76282 | -87.04017 | 32076 ft | 335 kts | 270° |
| 2026-05-07 17:27 | 33.76674 | -87.09591 | 32075 ft | 334 kts | 270° |
| 2026-05-07 17:28 | 33.77064 | -87.15160 | 32077 ft | 334 kts | 270° |
| 2026-05-07 17:28 | 33.77456 | -87.20719 | 32078 ft | 333 kts | 270° |
| 2026-05-07 17:29 | 33.77843 | -87.26226 | 32079 ft | 332 kts | 270° |
| 2026-05-07 17:29 | 33.78226 | -87.31757 | 32079 ft | 332 kts | 270° |
| 2026-05-07 17:30 | 33.78607 | -87.37285 | 32083 ft | 331 kts | 270° |
| 2026-05-07 17:30 | 33.78982 | -87.42797 | 32085 ft | 330 kts | 270° |
| 2026-05-07 17:31 | 33.79346 | -87.48292 | 32087 ft | 329 kts | 270° |
| 2026-05-07 17:31 | 33.79715 | -87.53916 | 32091 ft | 346 kts | 270° |
| 2026-05-07 17:32 | 33.80095 | -87.59732 | 32090 ft | 350 kts | 270° |
| 2026-05-07 17:32 | 33.80422 | -87.64588 | 32087 ft | 350 kts | 270° |
| 2026-05-07 17:33 | 33.80894 | -87.71371 | 32079 ft | 350 kts | 270° |
| 2026-05-07 17:33 | 33.81303 | -87.77200 | 32081 ft | 349 kts | 270° |
| 2026-05-07 17:34 | 33.81716 | -87.83019 | 32079 ft | 349 kts | 270° |
| 2026-05-07 17:34 | 33.82137 | -87.88839 | 32081 ft | 348 kts | 270° |
| 2026-05-07 17:35 | 33.82557 | -87.94596 | 32077 ft | 348 kts | 271° |
| 2026-05-07 17:35 | 33.82984 | -88.00391 | 32070 ft | 348 kts | 270° |
| 2026-05-07 17:36 | 33.83422 | -88.06176 | 32069 ft | 347 kts | 271° |
| 2026-05-07 17:36 | 33.83866 | -88.11957 | 32067 ft | 347 kts | 271° |
| 2026-05-07 17:37 | 33.84314 | -88.17744 | 32066 ft | 347 kts | 271° |
| 2026-05-07 17:37 | 33.84764 | -88.23530 | 32062 ft | 347 kts | 271° |
| 2026-05-07 17:38 | 33.85216 | -88.29313 | 32059 ft | 347 kts | 271° |
| 2026-05-07 17:38 | 33.85672 | -88.35097 | 32058 ft | 347 kts | 271° |
| 2026-05-07 17:39 | 33.86129 | -88.40886 | 32058 ft | 348 kts | 271° |
| 2026-05-07 17:39 | 33.86589 | -88.46678 | 32062 ft | 348 kts | 271° |
| 2026-05-07 17:40 | 33.87053 | -88.52441 | 32064 ft | 348 kts | 271° |
| 2026-05-07 17:40 | 33.87545 | -88.58241 | 32065 ft | 349 kts | 271° |
| 2026-05-07 17:41 | 33.88041 | -88.64045 | 32066 ft | 349 kts | 271° |
| 2026-05-07 17:41 | 33.88540 | -88.69862 | 32066 ft | 349 kts | 271° |
| 2026-05-07 17:42 | 33.89044 | -88.75690 | 32069 ft | 350 kts | 271° |
| 2026-05-07 17:42 | 33.89552 | -88.81515 | 32072 ft | 350 kts | 271° |
| 2026-05-07 17:43 | 33.90064 | -88.87349 | 32071 ft | 350 kts | 271° |
| 2026-05-07 17:43 | 33.90573 | -88.93143 | 32078 ft | 350 kts | 271° |
| 2026-05-07 17:44 | 33.91095 | -88.98989 | 32080 ft | 350 kts | 271° |
| 2026-05-07 17:44 | 33.91622 | -89.04823 | 32082 ft | 350 kts | 271° |
| 2026-05-07 17:45 | 33.92151 | -89.10651 | 32082 ft | 351 kts | 271° |
| 2026-05-07 17:45 | 33.92685 | -89.16496 | 32084 ft | 351 kts | 271° |
| 2026-05-07 17:46 | 33.93220 | -89.22298 | 32090 ft | 350 kts | 271° |
| 2026-05-07 17:46 | 33.93762 | -89.28124 | 32089 ft | 350 kts | 271° |
| 2026-05-07 17:47 | 33.94217 | -89.32970 | 32090 ft | 350 kts | 271° |
| 2026-05-07 17:47 | 33.94769 | -89.38799 | 32095 ft | 350 kts | 271° |
| 2026-05-07 17:48 | 33.95428 | -89.44608 | 32099 ft | 351 kts | 279° |
| 2026-05-07 17:48 | 33.96427 | -89.47286 | 32113 ft | 354 kts | 293° |
| 2026-05-07 17:48 | 33.97855 | -89.49706 | 32112 ft | 352 kts | 294° |
| 2026-05-07 17:49 | 34.00719 | -89.54469 | 32108 ft | 349 kts | 294° |
| 2026-05-07 17:49 | 34.03526 | -89.59161 | 32107 ft | 346 kts | 294° |
| 2026-05-07 17:50 | 34.06325 | -89.63876 | 32108 ft | 345 kts | 294° |
| 2026-05-07 17:50 | 34.09127 | -89.68593 | 32115 ft | 345 kts | 294° |
| 2026-05-07 17:51 | 34.11931 | -89.73298 | 32105 ft | 345 kts | 294° |
| 2026-05-07 17:51 | 34.14742 | -89.78002 | 32101 ft | 345 kts | 294° |
| 2026-05-07 17:52 | 34.17543 | -89.82703 | 32099 ft | 345 kts | 294° |
| 2026-05-07 17:52 | 34.20335 | -89.87413 | 32095 ft | 344 kts | 294° |
| 2026-05-07 17:53 | 34.23112 | -89.92093 | 32091 ft | 345 kts | 294° |
| 2026-05-07 17:53 | 34.25902 | -89.96808 | 32088 ft | 344 kts | 293° |
| 2026-05-07 17:54 | 34.28694 | -90.01531 | 32087 ft | 344 kts | 294° |
| 2026-05-07 17:54 | 34.31480 | -90.06242 | 32089 ft | 344 kts | 293° |
| 2026-05-07 17:55 | 34.34145 | -90.11016 | 32090 ft | 334 kts | 286° |
| 2026-05-07 17:55 | 34.34969 | -90.13590 | 32090 ft | 323 kts | 278° |
| 2026-05-07 17:55 | 34.35583 | -90.16207 | 32090 ft | 323 kts | 278° |
| 2026-05-07 17:56 | 34.36820 | -90.21433 | 32093 ft | 323 kts | 278° |
| 2026-05-07 17:56 | 34.38062 | -90.26655 | 32096 ft | 323 kts | 278° |
| 2026-05-07 17:57 | 34.39091 | -90.31000 | 32103 ft | 323 kts | 278° |
| 2026-05-07 17:57 | 34.40524 | -90.37077 | 32104 ft | 322 kts | 278° |
| 2026-05-07 17:58 | 34.41751 | -90.42292 | 32112 ft | 322 kts | 278° |
| 2026-05-07 17:58 | 34.42978 | -90.47505 | 32115 ft | 321 kts | 278° |
| 2026-05-07 17:59 | 34.44197 | -90.52701 | 32117 ft | 320 kts | 278° |
| 2026-05-07 17:59 | 34.45411 | -90.57895 | 32123 ft | 320 kts | 278° |
| 2026-05-07 18:00 | 34.46627 | -90.63082 | 32111 ft | 320 kts | 277° |
| 2026-05-07 18:00 | 34.47834 | -90.68269 | 32111 ft | 319 kts | 277° |
| 2026-05-07 18:01 | 34.49035 | -90.73439 | 32125 ft | 319 kts | 277° |
| 2026-05-07 18:01 | 34.50235 | -90.78607 | 32128 ft | 318 kts | 278° |
| 2026-05-07 18:02 | 34.52014 | -90.86303 | 32119 ft | 317 kts | 277° |
| 2026-05-07 18:03 | 34.53202 | -90.91452 | 32131 ft | 316 kts | 277° |
| 2026-05-07 18:03 | 34.54385 | -90.96588 | 32123 ft | 315 kts | 277° |
| 2026-05-07 18:04 | 34.55563 | -91.01718 | 32133 ft | 316 kts | 277° |
| 2026-05-07 18:04 | 34.56738 | -91.06824 | 32128 ft | 316 kts | 277° |
| 2026-05-07 18:05 | 34.57914 | -91.11958 | 32135 ft | 315 kts | 277° |
| 2026-05-07 18:05 | 34.59083 | -91.17082 | 32141 ft | 315 kts | 277° |
| 2026-05-07 18:06 | 34.60250 | -91.22214 | 32135 ft | 315 kts | 278° |
| 2026-05-07 18:06 | 34.61421 | -91.27345 | 32133 ft | 315 kts | 278° |
| 2026-05-07 18:07 | 34.62580 | -91.32476 | 32129 ft | 315 kts | 278° |
| 2026-05-07 18:07 | 34.63740 | -91.37620 | 32131 ft | 315 kts | 278° |
| 2026-05-07 18:08 | 34.64903 | -91.42767 | 32128 ft | 315 kts | 278° |
| 2026-05-07 18:08 | 34.66057 | -91.47881 | 32137 ft | 316 kts | 278° |
| 2026-05-07 18:09 | 34.67216 | -91.53026 | 32136 ft | 316 kts | 278° |
| 2026-05-07 18:09 | 34.68373 | -91.58174 | 32133 ft | 315 kts | 278° |
| 2026-05-07 18:10 | 34.69517 | -91.63285 | 32136 ft | 315 kts | 278° |
| 2026-05-07 18:10 | 34.70665 | -91.68427 | 32133 ft | 315 kts | 278° |
| 2026-05-07 18:11 | 34.71816 | -91.73560 | 32132 ft | 314 kts | 278° |
| 2026-05-07 18:11 | 34.72959 | -91.78696 | 32126 ft | 314 kts | 278° |
| 2026-05-07 18:12 | 34.74101 | -91.83838 | 32121 ft | 314 kts | 278° |
| 2026-05-07 18:12 | 34.75224 | -91.88939 | 32118 ft | 314 kts | 278° |
| 2026-05-07 18:13 | 34.76359 | -91.94070 | 32124 ft | 314 kts | 278° |
| 2026-05-07 18:13 | 34.77501 | -91.99219 | 32114 ft | 315 kts | 278° |
| 2026-05-07 18:14 | 34.78636 | -92.04363 | 32121 ft | 314 kts | 278° |
| 2026-05-07 18:14 | 34.79762 | -92.09509 | 32114 ft | 315 kts | 278° |
| 2026-05-07 18:15 | 34.80883 | -92.14651 | 32115 ft | 314 kts | 276° |
| 2026-05-07 18:15 | 34.81428 | -92.19834 | 32126 ft | 310 kts | 271° |
| 2026-05-07 18:16 | 34.81905 | -92.25049 | 32129 ft | 310 kts | 271° |
| 2026-05-07 18:16 | 34.82381 | -92.30271 | 32127 ft | 310 kts | 271° |
| 2026-05-07 18:17 | 34.82848 | -92.35487 | 32128 ft | 310 kts | 271° |
| 2026-05-07 18:17 | 34.83317 | -92.40697 | 32120 ft | 310 kts | 271° |
| 2026-05-07 18:18 | 34.83779 | -92.45877 | 32122 ft | 309 kts | 271° |
| 2026-05-07 18:18 | 34.84237 | -92.51084 | 32119 ft | 309 kts | 271° |
| 2026-05-07 18:19 | 34.84697 | -92.56283 | 32115 ft | 308 kts | 271° |
| 2026-05-07 18:19 | 34.85157 | -92.61471 | 32114 ft | 308 kts | 271° |
| 2026-05-07 18:20 | 34.85612 | -92.66674 | 32122 ft | 309 kts | 271° |
| 2026-05-07 18:20 | 34.86062 | -92.71875 | 32120 ft | 309 kts | 271° |
| 2026-05-07 18:21 | 34.86516 | -92.77060 | 32116 ft | 309 kts | 271° |
| 2026-05-07 18:21 | 34.86964 | -92.82267 | 32117 ft | 309 kts | 271° |
| 2026-05-07 18:22 | 34.87408 | -92.87480 | 32116 ft | 309 kts | 271° |
| 2026-05-07 18:22 | 34.87850 | -92.92693 | 32117 ft | 310 kts | 271° |
| 2026-05-07 18:23 | 34.88297 | -92.97916 | 32119 ft | 310 kts | 271° |
| 2026-05-07 18:23 | 34.88738 | -93.03135 | 32119 ft | 310 kts | 271° |
| 2026-05-07 18:24 | 34.89177 | -93.08330 | 32118 ft | 310 kts | 271° |
| 2026-05-07 18:24 | 34.89609 | -93.13553 | 32130 ft | 309 kts | 271° |
| 2026-05-07 18:25 | 34.90038 | -93.18768 | 32114 ft | 309 kts | 271° |
| 2026-05-07 18:25 | 34.90473 | -93.23995 | 32125 ft | 310 kts | 271° |
| 2026-05-07 18:26 | 34.90901 | -93.29182 | 32113 ft | 309 kts | 271° |
| 2026-05-07 18:26 | 34.91329 | -93.34412 | 32112 ft | 310 kts | 271° |
| 2026-05-07 18:27 | 34.91754 | -93.39643 | 32110 ft | 310 kts | 271° |
| 2026-05-07 18:27 | 34.92179 | -93.44873 | 32110 ft | 309 kts | 271° |
| 2026-05-07 18:28 | 34.92601 | -93.50100 | 32109 ft | 310 kts | 271° |
| 2026-05-07 18:28 | 34.93012 | -93.55305 | 32110 ft | 310 kts | 271° |
| 2026-05-07 18:29 | 34.93428 | -93.60549 | 32118 ft | 310 kts | 271° |
| 2026-05-07 18:29 | 34.93844 | -93.65792 | 32123 ft | 310 kts | 271° |
| 2026-05-07 18:30 | 34.94262 | -93.71026 | 32102 ft | 310 kts | 271° |
| 2026-05-07 18:30 | 34.94671 | -93.76224 | 32102 ft | 310 kts | 271° |
| 2026-05-07 18:31 | 34.95074 | -93.81447 | 32099 ft | 310 kts | 271° |
| 2026-05-07 18:31 | 34.95473 | -93.86674 | 32102 ft | 310 kts | 271° |
| 2026-05-07 18:32 | 34.95808 | -93.91052 | 32099 ft | 309 kts | 270° |
| 2026-05-07 18:32 | 34.96212 | -93.96276 | 32099 ft | 309 kts | 270° |
| 2026-05-07 18:33 | 34.96613 | -94.01505 | 32098 ft | 310 kts | 270° |
| 2026-05-07 18:33 | 34.97008 | -94.06705 | 32096 ft | 311 kts | 270° |
| 2026-05-07 18:34 | 34.97407 | -94.11956 | 32096 ft | 311 kts | 270° |
| 2026-05-07 18:34 | 34.97798 | -94.17195 | 32099 ft | 311 kts | 270° |
| 2026-05-07 18:35 | 34.98190 | -94.22453 | 32100 ft | 311 kts | 270° |
| 2026-05-07 18:35 | 34.98577 | -94.27710 | 32102 ft | 312 kts | 270° |
| 2026-05-07 18:36 | 34.98959 | -94.32978 | 32114 ft | 313 kts | 270° |
| 2026-05-07 18:36 | 34.99345 | -94.38262 | 32121 ft | 312 kts | 270° |
| 2026-05-07 18:37 | 34.99734 | -94.43516 | 32109 ft | 313 kts | 270° |
| 2026-05-07 18:37 | 35.00117 | -94.48812 | 32122 ft | 313 kts | 270° |
| 2026-05-07 18:38 | 35.00495 | -94.54108 | 32123 ft | 313 kts | 270° |
| 2026-05-07 18:38 | 35.00869 | -94.59403 | 32128 ft | 313 kts | 270° |
| 2026-05-07 18:39 | 35.01243 | -94.64694 | 32122 ft | 313 kts | 270° |
| 2026-05-07 18:39 | 35.01683 | -94.69957 | 32116 ft | 316 kts | 272° |
| 2026-05-07 18:40 | 35.02409 | -94.75256 | 32118 ft | 317 kts | 274° |
| 2026-05-07 18:40 | 35.03188 | -94.80546 | 32121 ft | 316 kts | 274° |
| 2026-05-07 18:41 | 35.03934 | -94.85846 | 32122 ft | 316 kts | 274° |
| 2026-05-07 18:41 | 35.04651 | -94.91140 | 32124 ft | 316 kts | 274° |
| 2026-05-07 18:42 | 35.05355 | -94.96385 | 32128 ft | 315 kts | 274° |
| 2026-05-07 18:42 | 35.06065 | -95.01674 | 32123 ft | 316 kts | 274° |
| 2026-05-07 18:43 | 35.06777 | -95.06974 | 32119 ft | 316 kts | 274° |
| 2026-05-07 18:43 | 35.07485 | -95.12285 | 32123 ft | 317 kts | 274° |
| 2026-05-07 18:44 | 35.08193 | -95.17602 | 32119 ft | 317 kts | 274° |
| 2026-05-07 18:44 | 35.08898 | -95.22881 | 32120 ft | 317 kts | 274° |
| 2026-05-07 18:45 | 35.09599 | -95.28191 | 32118 ft | 316 kts | 274° |
| 2026-05-07 18:45 | 35.10303 | -95.33493 | 32110 ft | 316 kts | 274° |
| 2026-05-07 18:46 | 35.10997 | -95.38803 | 32115 ft | 316 kts | 274° |
| 2026-05-07 18:46 | 35.11687 | -95.44099 | 32115 ft | 316 kts | 274° |
| 2026-05-07 18:47 | 35.12368 | -95.49395 | 32106 ft | 316 kts | 273° |
| 2026-05-07 18:47 | 35.13003 | -95.54668 | 32117 ft | 316 kts | 273° |
| 2026-05-07 18:48 | 35.13632 | -95.59981 | 32113 ft | 316 kts | 273° |
| 2026-05-07 18:48 | 35.14260 | -95.65313 | 32122 ft | 316 kts | 273° |
| 2026-05-07 18:49 | 35.14890 | -95.70650 | 32129 ft | 322 kts | 273° |
| 2026-05-07 18:49 | 35.15536 | -95.76178 | 31603 ft | 330 kts | 273° |
| 2026-05-07 18:49 | 35.15858 | -95.78905 | 31011 ft | 327 kts | 273° |
| 2026-05-07 18:50 | 35.16184 | -95.81650 | 30417 ft | 325 kts | 273° |
| 2026-05-07 18:50 | 35.16509 | -95.84363 | 29989 ft | 319 kts | 274° |
| 2026-05-07 18:50 | 35.16825 | -95.87023 | 29636 ft | 312 kts | 273° |
| 2026-05-07 18:50 | 35.17132 | -95.89625 | 29286 ft | 305 kts | 274° |
| 2026-05-07 18:51 | 35.17425 | -95.92139 | 28971 ft | 298 kts | 274° |
| 2026-05-07 18:51 | 35.17713 | -95.94623 | 28640 ft | 292 kts | 273° |
| 2026-05-07 18:51 | 35.17995 | -95.97055 | 28314 ft | 286 kts | 274° |
| 2026-05-07 18:51 | 35.18273 | -95.99433 | 27994 ft | 280 kts | 274° |
| 2026-05-07 18:52 | 35.18543 | -96.01768 | 27682 ft | 274 kts | 274° |
| 2026-05-07 18:52 | 35.18806 | -96.04058 | 27366 ft | 270 kts | 274° |
| 2026-05-07 18:52 | 35.19063 | -96.06334 | 27064 ft | 269 kts | 274° |
| 2026-05-07 18:52 | 35.19319 | -96.08601 | 26747 ft | 270 kts | 274° |
| 2026-05-07 18:53 | 35.19580 | -96.10871 | 26421 ft | 269 kts | 275° |
| 2026-05-07 18:53 | 35.19841 | -96.13138 | 26110 ft | 269 kts | 275° |
| 2026-05-07 18:53 | 35.20101 | -96.15409 | 25778 ft | 270 kts | 275° |
| 2026-05-07 18:53 | 35.20359 | -96.17686 | 25442 ft | 270 kts | 275° |
| 2026-05-07 18:54 | 35.20617 | -96.19958 | 25110 ft | 270 kts | 275° |
| 2026-05-07 18:54 | 35.20875 | -96.22236 | 24656 ft | 271 kts | 275° |
| 2026-05-07 18:54 | 35.21115 | -96.24521 | 24197 ft | 271 kts | 275° |
| 2026-05-07 18:54 | 35.21340 | -96.26784 | 23755 ft | 271 kts | 275° |
| 2026-05-07 18:55 | 35.21563 | -96.29073 | 23305 ft | 271 kts | 275° |
| 2026-05-07 18:55 | 35.21784 | -96.31358 | 22863 ft | 271 kts | 275° |
| 2026-05-07 18:55 | 35.22007 | -96.33652 | 22428 ft | 271 kts | 276° |
| 2026-05-07 18:55 | 35.22231 | -96.35951 | 21989 ft | 272 kts | 276° |
| 2026-05-07 18:56 | 35.22457 | -96.38244 | 21564 ft | 272 kts | 276° |
| 2026-05-07 18:56 | 35.22684 | -96.40544 | 21135 ft | 272 kts | 276° |
| 2026-05-07 18:56 | 35.22912 | -96.42847 | 20712 ft | 273 kts | 276° |
| 2026-05-07 18:56 | 35.23142 | -96.45157 | 20286 ft | 273 kts | 276° |
| 2026-05-07 18:57 | 35.23369 | -96.47433 | 19873 ft | 273 kts | 276° |
| 2026-05-07 18:57 | 35.23599 | -96.49743 | 19454 ft | 274 kts | 276° |
| 2026-05-07 18:57 | 35.23826 | -96.52059 | 19030 ft | 274 kts | 276° |
| 2026-05-07 18:57 | 35.24053 | -96.54382 | 18614 ft | 274 kts | 276° |
| 2026-05-07 18:58 | 35.24276 | -96.56697 | 18202 ft | 275 kts | 276° |
| 2026-05-07 18:58 | 35.24500 | -96.59029 | 17787 ft | 276 kts | 276° |
| 2026-05-07 18:58 | 35.24723 | -96.61362 | 17320 ft | 278 kts | 276° |
| 2026-05-07 18:58 | 35.24937 | -96.63730 | 16868 ft | 280 kts | 275° |
| 2026-05-07 18:59 | 35.25078 | -96.66068 | 16673 ft | 279 kts | 274° |
| 2026-05-07 18:59 | 35.25185 | -96.68432 | 16451 ft | 278 kts | 273° |
| 2026-05-07 18:59 | 35.25279 | -96.70793 | 16227 ft | 277 kts | 273° |
| 2026-05-07 18:59 | 35.25372 | -96.73150 | 16002 ft | 277 kts | 273° |
| 2026-05-07 19:00 | 35.25468 | -96.75495 | 15781 ft | 276 kts | 273° |
| 2026-05-07 19:00 | 35.25567 | -96.77832 | 15556 ft | 275 kts | 273° |
| 2026-05-07 19:00 | 35.25670 | -96.80171 | 15331 ft | 275 kts | 274° |
| 2026-05-07 19:00 | 35.25775 | -96.82502 | 15108 ft | 274 kts | 274° |
| 2026-05-07 19:01 | 35.25882 | -96.84830 | 14846 ft | 274 kts | 274° |
| 2026-05-07 19:01 | 35.25990 | -96.87158 | 14486 ft | 274 kts | 274° |
| 2026-05-07 19:01 | 35.26092 | -96.89480 | 14141 ft | 272 kts | 274° |
| 2026-05-07 19:01 | 35.26195 | -96.91789 | 13796 ft | 272 kts | 274° |
| 2026-05-07 19:02 | 35.26299 | -96.94097 | 13470 ft | 270 kts | 274° |
| 2026-05-07 19:02 | 35.26400 | -96.96356 | 13138 ft | 269 kts | 274° |
| 2026-05-07 19:02 | 35.26505 | -96.98643 | 12810 ft | 268 kts | 274° |
| 2026-05-07 19:02 | 35.26607 | -97.00914 | 12480 ft | 267 kts | 274° |
| 2026-05-07 19:03 | 35.26707 | -97.03183 | 12138 ft | 266 kts | 274° |
| 2026-05-07 19:03 | 35.26808 | -97.05446 | 11791 ft | 266 kts | 274° |
| 2026-05-07 19:03 | 35.26924 | -97.07706 | 11443 ft | 266 kts | 274° |
| 2026-05-07 19:03 | 35.27031 | -97.09967 | 11130 ft | 266 kts | 274° |
| 2026-05-07 19:04 | 35.27120 | -97.12204 | 10789 ft | 266 kts | 273° |
| 2026-05-07 19:04 | 35.27194 | -97.14477 | 10467 ft | 267 kts | 273° |
| 2026-05-07 19:04 | 35.27301 | -97.16744 | 10191 ft | 267 kts | 280° |
| 2026-05-07 19:04 | 35.28034 | -97.18803 | 9929 ft | 264 kts | 307° |
| 2026-05-07 19:05 | 35.29475 | -97.20162 | 9655 ft | 265 kts | 334° |
| 2026-05-07 19:05 | 35.31237 | -97.20827 | 9380 ft | 264 kts | 342° |
| 2026-05-07 19:05 | 35.33004 | -97.21369 | 9123 ft | 259 kts | 342° |
| 2026-05-07 19:05 | 35.34746 | -97.21897 | 8858 ft | 255 kts | 343° |
| 2026-05-07 19:06 | 35.36460 | -97.22424 | 8560 ft | 252 kts | 342° |
| 2026-05-07 19:06 | 35.39812 | -97.23466 | 8036 ft | 244 kts | 342° |
| 2026-05-07 19:06 | 35.41422 | -97.23969 | 7784 ft | 239 kts | 342° |
| 2026-05-07 19:07 | 35.43043 | -97.24478 | 7494 ft | 236 kts | 343° |
| 2026-05-07 19:07 | 35.44626 | -97.24979 | 7236 ft | 234 kts | 343° |
| 2026-05-07 19:07 | 35.46183 | -97.25476 | 6975 ft | 234 kts | 342° |
| 2026-05-07 19:07 | 35.47754 | -97.25978 | 6682 ft | 232 kts | 343° |
| 2026-05-07 19:08 | 35.49315 | -97.26480 | 6233 ft | 232 kts | 342° |
| 2026-05-07 19:08 | 35.50865 | -97.26979 | 5982 ft | 227 kts | 343° |
| 2026-05-07 19:08 | 35.52414 | -97.27481 | 5987 ft | 232 kts | 343° |
| 2026-05-07 19:08 | 35.53980 | -97.27992 | 5987 ft | 233 kts | 342° |
| 2026-05-07 19:09 | 35.55548 | -97.28503 | 5974 ft | 233 kts | 343° |
| 2026-05-07 19:09 | 35.57116 | -97.29015 | 5970 ft | 233 kts | 342° |
| 2026-05-07 19:09 | 35.58687 | -97.29527 | 5975 ft | 234 kts | 342° |
| 2026-05-07 19:09 | 35.60257 | -97.30038 | 5977 ft | 233 kts | 343° |
| 2026-05-07 19:10 | 35.61823 | -97.30547 | 5970 ft | 232 kts | 343° |
| 2026-05-07 19:10 | 35.63396 | -97.31059 | 5968 ft | 234 kts | 342° |
| 2026-05-07 19:10 | 35.64967 | -97.31570 | 5984 ft | 234 kts | 343° |
| 2026-05-07 19:10 | 35.66542 | -97.32083 | 5985 ft | 234 kts | 342° |
| 2026-05-07 19:11 | 35.68094 | -97.32588 | 5964 ft | 233 kts | 343° |
| 2026-05-07 19:11 | 35.69656 | -97.33097 | 5641 ft | 231 kts | 342° |
| 2026-05-07 19:11 | 35.71048 | -97.33996 | 5322 ft | 225 kts | 312° |
| 2026-05-07 19:11 | 35.71786 | -97.35635 | 5017 ft | 218 kts | 278° |
| 2026-05-07 19:12 | 35.71791 | -97.37479 | 4963 ft | 221 kts | 264° |
| 2026-05-07 19:12 | 35.71626 | -97.39374 | 4954 ft | 222 kts | 262° |
| 2026-05-07 19:12 | 35.71150 | -97.41174 | 4875 ft | 223 kts | 238° |
| 2026-05-07 19:12 | 35.70050 | -97.42506 | 4748 ft | 224 kts | 214° |
| 2026-05-07 19:13 | 35.68734 | -97.43546 | 4622 ft | 225 kts | 214° |
| 2026-05-07 19:13 | 35.67416 | -97.44583 | 4499 ft | 224 kts | 214° |
| 2026-05-07 19:13 | 35.66100 | -97.45615 | 4383 ft | 223 kts | 214° |
| 2026-05-07 19:13 | 35.64822 | -97.46616 | 4288 ft | 219 kts | 214° |
| 2026-05-07 19:14 | 35.63539 | -97.47625 | 4167 ft | 218 kts | 214° |
| 2026-05-07 19:14 | 35.62259 | -97.48627 | 4040 ft | 217 kts | 214° |
| 2026-05-07 19:14 | 35.60984 | -97.49627 | 3928 ft | 216 kts | 214° |
| 2026-05-07 19:14 | 35.59740 | -97.50606 | 3798 ft | 209 kts | 214° |
| 2026-05-07 19:15 | 35.58533 | -97.51552 | 3671 ft | 203 kts | 214° |
| 2026-05-07 19:15 | 35.57377 | -97.52460 | 3569 ft | 191 kts | 214° |
| 2026-05-07 19:15 | 35.56267 | -97.53334 | 3444 ft | 188 kts | 214° |
| 2026-05-07 19:15 | 35.55195 | -97.54178 | 3313 ft | 177 kts | 214° |
| 2026-05-07 19:16 | 35.54209 | -97.54953 | 3213 ft | 161 kts | 214° |
| 2026-05-07 19:16 | 35.53292 | -97.55670 | 3094 ft | 149 kts | 215° |
| 2026-05-07 19:16 | 35.52456 | -97.56324 | 3020 ft | 142 kts | 215° |
| 2026-05-07 19:16 | 35.51632 | -97.56971 | 2974 ft | 139 kts | 215° |
| 2026-05-07 19:17 | 35.50816 | -97.57610 | 2973 ft | 139 kts | 215° |
| 2026-05-07 19:17 | 35.50000 | -97.58247 | 2973 ft | 139 kts | 215° |
| 2026-05-07 19:17 | 35.49145 | -97.58801 | 2929 ft | 142 kts | 199° |
| 2026-05-07 19:17 | 35.48159 | -97.58904 | 2785 ft | 144 kts | 183° |
| 2026-05-07 19:18 | 35.47161 | -97.58900 | 2613 ft | 143 kts | 184° |
| 2026-05-07 19:18 | 35.46503 | -97.58898 | 2464 ft | 142 kts | 184° |
| 2026-05-07 19:18 | 35.45523 | -97.58896 | 2270 ft | 140 kts | 184° |
| 2026-05-07 19:18 | 35.44551 | -97.58900 | 2093 ft | 139 kts | 183° |
| 2026-05-07 19:19 | 35.43590 | -97.58895 | 1916 ft | 138 kts | 183° |
| 2026-05-07 19:19 | 35.42627 | -97.58898 | 1746 ft | 139 kts | 182° |
| 2026-05-07 19:19 | 35.41657 | -97.58896 | 1572 ft | 141 kts | 182° |
| 2026-05-07 19:19 | 35.40695 | -97.58898 | 1370 ft | 138 kts | 182° |
| 2026-05-07 19:20 | 35.39773 | -97.58896 | 1292 ft | 121 kts | 180° |
| 2026-05-07 19:20 | 35.39203 | -97.58895 | 1294 ft | 49 kts | 179° |
| 2026-05-07 19:20 | 35.38911 | -97.58897 | 1294 ft | 22 kts | 183° |
| 2026-05-07 19:20 | 35.38792 | -97.58982 | 1292 ft | 22 kts | 260° |
| 2026-05-07 19:21 | 35.38873 | -97.59061 | 1292 ft | 3 kts | 2° |
| 2026-05-07 19:21 | 35.38884 | -97.59061 | 1292 ft | 0 kts | 360° |
| 2026-05-07 19:21 | 35.38926 | -97.59062 | 1293 ft | 14 kts | 359° |
| 2026-05-07 19:21 | 35.39068 | -97.59063 | 1292 ft | 23 kts | 0° |
| 2026-05-07 19:22 | 35.39181 | -97.59060 | 1291 ft | 12 kts | 358° |
| 2026-05-07 19:22 | 35.39215 | -97.59121 | 1292 ft | 9 kts | 275° |
| 2026-05-07 19:22 | 35.39235 | -97.59217 | 1294 ft | 10 kts | 341° |
| 2026-05-07 19:22 | 35.39316 | -97.59222 | 1294 ft | 15 kts | 0° |
| 2026-05-07 19:23 | 35.39382 | -97.59281 | 1296 ft | 12 kts | 276° |
| 2026-05-07 19:23 | 35.39383 | -97.59370 | 1297 ft | 9 kts | 269° |
| 2026-05-07 19:23 | 35.39388 | -97.59423 | 1297 ft | 4 kts | 296° |
| 2026-05-07 19:23 | 35.39407 | -97.59436 | 1297 ft | 3 kts | 339° |
| 2026-05-07 19:24 | 35.39425 | -97.59445 | 1297 ft | 3 kts | 339° |
| 2026-05-07 19:24 | 35.39440 | -97.59452 | 1297 ft | 2 kts | 338° |
| 2026-05-07 19:24 | 35.39452 | -97.59458 | 1297 ft | 2 kts | 338° |
| 2026-05-07 19:24 | 35.39459 | -97.59461 | 1297 ft | 1 kts | 338° |
| 2026-05-07 19:25 | 35.39468 | -97.59466 | 1297 ft | 1 kts | 338° |
| 2026-05-07 19:25 | 35.39474 | -97.59469 | 1297 ft | 0 kts | 338° |
| 2026-05-07 19:25 | 35.39477 | -97.59470 | 1297 ft | 0 kts | 338° |